Time;durP1;ratioP1;P1;durP2;ratioP2;P2;SDS_P1;SDS_P2;PMS_P1;PMS_P2;Temp;Humidity;BMP_temperature;BMP_pressure;BME280_temperature;BME280_humidity;BME280_pressure;Samples;Min_cycle;Max_cycle;Signal;HPM_P1;HPM_P2
2023/10/31 00:03:10;;;;;;;5.50;3.08;;;;;;;;;;10374351;28;20217;-74
2023/10/31 00:08:11;;;;;;;4.70;3.28;;;;;;;;;;10377165;28;20221;-74
2023/10/31 00:13:12;;;;;;;3.63;3.35;;;;;;;;;;10386167;28;20260;-75
2023/10/31 00:18:13;;;;;;;3.30;3.00;;;;;;;;;;10393068;28;20225;-74
2023/10/31 00:23:15;;;;;;;3.10;3.00;;;;;;;;;;10373831;28;20791;-74
2023/10/31 00:28:16;;;;;;;5.53;3.00;;;;;;;;;;10372074;28;20684;-75
2023/10/31 00:33:17;;;;;;;3.72;3.42;;;;;;;;;;10383820;28;21016;-75
2023/10/31 00:38:19;;;;;;;4.47;3.55;;;;;;;;;;10400598;28;20707;-77
2023/10/31 00:43:20;;;;;;;2.95;2.85;;;;;;;;;;10386445;28;20747;-73
2023/10/31 00:48:21;;;;;;;4.40;3.58;;;;;;;;;;10403470;28;20218;-74
2023/10/31 00:53:22;;;;;;;3.55;3.35;;;;;;;;;;10386494;28;20265;-74
2023/10/31 00:58:23;;;;;;;4.43;4.03;;;;;;;;;;10398975;28;20917;-75
2023/10/31 01:03:24;;;;;;;3.90;3.60;;;;;;;;;;10396612;28;20312;-73
2023/10/31 01:08:25;;;;;;;7.53;3.65;;;;;;;;;;10382227;28;20631;-74
2023/10/31 01:13:26;;;;;;;3.42;3.05;;;;;;;;;;10399875;28;20210;-73
2023/10/31 01:18:27;;;;;;;4.03;3.80;;;;;;;;;;10402191;28;20220;-75
2023/10/31 01:23:28;;;;;;;3.90;3.60;;;;;;;;;;10399840;28;20207;-74
2023/10/31 01:28:29;;;;;;;4.57;3.88;;;;;;;;;;10385368;28;20278;-75
2023/10/31 01:33:31;;;;;;;4.95;4.50;;;;;;;;;;10383152;28;20207;-75
2023/10/31 01:38:32;;;;;;;6.35;4.70;;;;;;;;;;10384506;28;20230;-75
2023/10/31 01:43:37;;;;;;;9.48;4.93;;;;;;;;;;10386876;28;21090;-76
2023/10/31 01:48:38;;;;;;;9.13;5.53;;;;;;;;;;10402210;28;20214;-75
2023/10/31 01:53:40;;;;;;;6.95;5.68;;;;;;;;;;10376314;28;20241;-76
2023/10/31 01:58:43;;;;;;;6.70;6.07;;;;;;;;;;10389121;28;20317;-77
2023/10/31 02:03:44;;;;;;;9.10;6.68;;;;;;;;;;10391796;28;20704;-76
2023/10/31 02:08:47;;;;;;;8.07;6.05;;;;;;;;;;10397914;28;20301;-75
2023/10/31 02:13:48;;;;;;;6.20;5.65;;;;;;;;;;10397711;28;20675;-76
2023/10/31 02:18:49;;;;;;;6.35;5.78;;;;;;;;;;10368497;28;20724;-76
2023/10/31 02:23:57;;;;;;;8.63;6.38;;;;;;;;;;10396733;28;20722;-75
2023/10/31 02:28:59;;;;;;;8.25;6.15;;;;;;;;;;10391591;28;20226;-74
2023/10/31 02:34:00;;;;;;;6.05;5.55;;;;;;;;;;10396549;28;20214;-76
2023/10/31 02:39:02;;;;;;;5.35;4.93;;;;;;;;;;10373428;28;20229;-75
2023/10/31 02:44:03;;;;;;;6.07;5.55;;;;;;;;;;10390038;28;20786;-74
2023/10/31 02:49:04;;;;;;;5.50;5.00;;;;;;;;;;10383696;28;20229;-74
2023/10/31 02:54:06;;;;;;;5.50;5.05;;;;;;;;;;10379399;28;20221;-76
2023/10/31 02:59:07;;;;;;;6.55;5.78;;;;;;;;;;10366843;28;20222;-74
2023/10/31 03:04:11;;;;;;;5.35;4.95;;;;;;;;;;10372534;28;20213;-76
2023/10/31 03:09:13;;;;;;;7.32;6.03;;;;;;;;;;10370578;28;20214;-73
2023/10/31 03:14:14;;;;;;;6.35;5.70;;;;;;;;;;10385840;28;20218;-74
2023/10/31 03:19:15;;;;;;;6.28;5.63;;;;;;;;;;10367795;28;20222;-74
2023/10/31 03:24:17;;;;;;;6.53;5.72;;;;;;;;;;10373169;28;21079;-74
2023/10/31 03:29:19;;;;;;;6.82;6.05;;;;;;;;;;10384721;28;20887;-74
2023/10/31 03:34:20;;;;;;;6.63;5.90;;;;;;;;;;10378360;28;20692;-74
2023/10/31 03:39:21;;;;;;;6.18;5.63;;;;;;;;;;10377800;28;20221;-74
2023/10/31 03:44:22;;;;;;;6.38;5.78;;;;;;;;;;10387591;28;20229;-75
2023/10/31 03:49:23;;;;;;;7.40;6.70;;;;;;;;;;10382780;28;20813;-75
2023/10/31 03:54:24;;;;;;;8.07;6.95;;;;;;;;;;10387437;28;20364;-74
2023/10/31 03:59:25;;;;;;;12.05;7.00;;;;;;;;;;10346459;28;20593;-75
2023/10/31 04:04:26;;;;;;;10.05;7.10;;;;;;;;;;10366420;28;20210;-74
2023/10/31 04:09:27;;;;;;;9.45;6.35;;;;;;;;;;10370040;28;20300;-75
2023/10/31 04:14:28;;;;;;;12.68;6.78;;;;;;;;;;10351003;28;20689;-75
2023/10/31 04:19:29;;;;;;;7.28;6.57;;;;;;;;;;10382096;28;20228;-75
2023/10/31 04:24:31;;;;;;;6.65;5.95;;;;;;;;;;10378281;28;20587;-75
2023/10/31 04:29:32;;;;;;;7.63;6.03;;;;;;;;;;10376043;28;20222;-74
2023/10/31 04:34:33;;;;;;;8.35;5.53;;;;;;;;;;10380733;28;20229;-74
2023/10/31 04:39:34;;;;;;;6.68;5.38;;;;;;;;;;10371567;28;20234;-74
2023/10/31 04:44:35;;;;;;;5.40;4.90;;;;;;;;;;10382896;28;20213;-74
2023/10/31 04:49:36;;;;;;;4.72;3.72;;;;;;;;;;10385013;28;20209;-73
2023/10/31 04:54:37;;;;;;;4.10;3.72;;;;;;;;;;10391307;28;20218;-74
2023/10/31 04:59:38;;;;;;;6.03;4.30;;;;;;;;;;10393087;28;20287;-74
2023/10/31 05:04:40;;;;;;;3.67;3.40;;;;;;;;;;10392280;28;20218;-74
2023/10/31 05:09:42;;;;;;;4.05;3.53;;;;;;;;;;10388762;28;20703;-74
2023/10/31 05:14:43;;;;;;;2.45;2.25;;;;;;;;;;10367803;28;20644;-74
2023/10/31 05:19:44;;;;;;;1.48;1.45;;;;;;;;;;10405070;28;20295;-74
2023/10/31 05:24:45;;;;;;;1.35;1.35;;;;;;;;;;10402373;28;20601;-75
2023/10/31 05:29:46;;;;;;;3.08;1.35;;;;;;;;;;10397300;28;20222;-74
2023/10/31 05:34:47;;;;;;;0.80;0.80;;;;;;;;;;10393766;28;20971;-74
2023/10/31 05:39:48;;;;;;;0.30;0.30;;;;;;;;;;10402690;28;20694;-75
2023/10/31 05:44:49;;;;;;;0.60;0.30;;;;;;;;;;10396608;28;20214;-74
2023/10/31 05:49:50;;;;;;;0.20;0.20;;;;;;;;;;10397964;28;20206;-75
2023/10/31 05:54:51;;;;;;;0.20;0.20;;;;;;;;;;10400036;28;20375;-74
2023/10/31 05:59:52;;;;;;;3.80;0.30;;;;;;;;;;10398404;28;20308;-75
2023/10/31 06:04:53;;;;;;;0.10;0.10;;;;;;;;;;10396674;28;20214;-75
2023/10/31 06:09:54;;;;;;;0.20;0.20;;;;;;;;;;10396091;28;20707;-76
2023/10/31 06:14:57;;;;;;;3.20;0.20;;;;;;;;;;10375914;28;20207;-75
2023/10/31 06:19:59;;;;;;;0.10;0.10;;;;;;;;;;10394221;28;20215;-75
2023/10/31 06:25:01;;;;;;;0.63;0.20;;;;;;;;;;10394063;28;20718;-75
2023/10/31 06:30:02;;;;;;;0.15;0.15;;;;;;;;;;10375105;28;20821;-74
2023/10/31 06:35:03;;;;;;;1.75;0.30;;;;;;;;;;10385408;28;20249;-78
2023/10/31 06:40:05;;;;;;;0.30;0.30;;;;;;;;;;10371386;28;20244;-77
2023/10/31 06:45:07;;;;;;;0.30;0.30;;;;;;;;;;10361871;28;20225;-77
2023/10/31 06:50:08;;;;;;;0.32;0.32;;;;;;;;;;10380802;28;20194;-78
2023/10/31 06:55:09;;;;;;;0.38;0.38;;;;;;;;;;10375986;28;20198;-75
2023/10/31 07:00:12;;;;;;;0.35;0.35;;;;;;;;;;10384292;28;20212;-74
2023/10/31 07:05:15;;;;;;;1.75;0.30;;;;;;;;;;10375939;28;20234;-75
2023/10/31 07:10:16;;;;;;;0.93;0.40;;;;;;;;;;10367244;28;20237;-75
2023/10/31 07:15:17;;;;;;;1.75;0.47;;;;;;;;;;10386718;28;20708;-74
2023/10/31 07:20:18;;;;;;;0.40;0.40;;;;;;;;;;10357020;28;20998;-73
2023/10/31 07:25:19;;;;;;;0.38;0.38;;;;;;;;;;10378829;28;20711;-76
2023/10/31 07:30:20;;;;;;;0.40;0.40;;;;;;;;;;10372719;28;20229;-74
2023/10/31 07:35:21;;;;;;;1.10;0.32;;;;;;;;;;10375024;28;20338;-75
2023/10/31 07:40:22;;;;;;;0.82;0.40;;;;;;;;;;10379787;28;20280;-74
2023/10/31 07:45:23;;;;;;;0.40;0.40;;;;;;;;;;10384536;28;20226;-75
2023/10/31 07:50:24;;;;;;;0.40;0.40;;;;;;;;;;10387881;28;20178;-75
2023/10/31 07:55:25;;;;;;;1.55;0.40;;;;;;;;;;10388031;28;20761;-75
2023/10/31 08:00:26;;;;;;;0.43;0.43;;;;;;;;;;10366790;28;20210;-76
2023/10/31 08:05:28;;;;;;;0.40;0.40;;;;;;;;;;10382140;28;20630;-75
2023/10/31 08:10:29;;;;;;;0.70;0.70;;;;;;;;;;10382559;28;20702;-75
2023/10/31 08:15:30;;;;;;;0.40;0.40;;;;;;;;;;10345038;28;20241;-75
2023/10/31 08:20:33;;;;;;;0.60;0.60;;;;;;;;;;10378828;28;20206;-75
2023/10/31 08:25:34;;;;;;;0.77;0.77;;;;;;;;;;10387263;28;20217;-74
2023/10/31 08:30:36;;;;;;;0.60;0.60;;;;;;;;;;10382356;28;20226;-75
2023/10/31 08:35:37;;;;;;;0.50;0.50;;;;;;;;;;10377056;28;20250;-74
2023/10/31 08:40:38;;;;;;;0.70;0.70;;;;;;;;;;10381270;28;20209;-74
2023/10/31 08:45:39;;;;;;;0.95;0.95;;;;;;;;;;10378478;28;20225;-74
2023/10/31 08:50:40;;;;;;;0.70;0.70;;;;;;;;;;10376098;28;20199;-76
2023/10/31 08:55:45;;;;;;;0.98;0.98;;;;;;;;;;10388727;28;20232;-76
2023/10/31 09:00:46;;;;;;;1.02;1.02;;;;;;;;;;10343959;28;20260;-74
2023/10/31 09:05:47;;;;;;;0.80;0.80;;;;;;;;;;10404085;28;20238;-75
2023/10/31 09:10:48;;;;;;;0.68;0.68;;;;;;;;;;10393022;28;20953;-75
2023/10/31 09:15:49;;;;;;;0.60;0.60;;;;;;;;;;10388666;28;20214;-73
2023/10/31 09:20:51;;;;;;;0.50;0.50;;;;;;;;;;10391363;28;20221;-73
2023/10/31 09:25:52;;;;;;;0.70;0.70;;;;;;;;;;10384951;28;20226;-75
2023/10/31 09:30:53;;;;;;;0.47;0.47;;;;;;;;;;10358718;28;20227;-76
2023/10/31 09:35:54;;;;;;;0.60;0.60;;;;;;;;;;10367861;28;20317;-75
2023/10/31 09:40:55;;;;;;;0.40;0.40;;;;;;;;;;10385293;28;20211;-76
2023/10/31 09:45:57;;;;;;;0.68;0.60;;;;;;;;;;10386551;28;20218;-74
2023/10/31 09:51:00;;;;;;;0.45;0.30;;;;;;;;;;10370720;28;20568;-78
2023/10/31 09:56:01;;;;;;;0.35;0.35;;;;;;;;;;10379253;28;20218;-76
2023/10/31 10:01:02;;;;;;;1.30;0.30;;;;;;;;;;10386627;28;20296;-73
2023/10/31 10:06:04;;;;;;;0.90;0.30;;;;;;;;;;10397659;28;20265;-73
2023/10/31 10:11:06;;;;;;;0.30;0.30;;;;;;;;;;10381132;28;20248;-74
2023/10/31 10:16:07;;;;;;;0.20;0.20;;;;;;;;;;10360223;28;20284;-74
2023/10/31 10:21:09;;;;;;;0.20;0.20;;;;;;;;;;10386078;28;20206;-75
2023/10/31 10:26:10;;;;;;;1.60;0.25;;;;;;;;;;10389181;28;20217;-73
2023/10/31 10:31:14;;;;;;;0.20;0.20;;;;;;;;;;10380950;28;20531;-71
2023/10/31 10:36:15;;;;;;;0.30;0.30;;;;;;;;;;10377218;28;20692;-76
2023/10/31 10:41:19;;;;;;;0.20;0.20;;;;;;;;;;10386539;28;20214;-72
2023/10/31 10:46:21;;;;;;;0.20;0.20;;;;;;;;;;10384545;28;20301;-76
2023/10/31 10:51:31;;;;;;;0.20;0.20;;;;;;;;;;10393078;28;20220;-78
2023/10/31 10:56:39;;;;;;;0.20;0.20;;;;;;;;;;10389190;28;20225;-74
2023/10/31 11:01:41;;;;;;;0.20;0.20;;;;;;;;;;10389909;28;20332;-75
2023/10/31 11:06:43;;;;;;;0.20;0.20;;;;;;;;;;10384331;28;20215;-76
2023/10/31 11:11:48;;;;;;;0.35;0.22;;;;;;;;;;10383192;28;20233;-71
2023/10/31 11:16:52;;;;;;;0.20;0.20;;;;;;;;;;10386783;28;20654;-73
2023/10/31 11:22:00;;;;;;;0.20;0.20;;;;;;;;;;10381965;28;20707;-72
2023/10/31 11:27:03;;;;;;;0.10;0.10;;;;;;;;;;10371810;28;20380;-74
2023/10/31 11:32:04;;;;;;;0.10;0.10;;;;;;;;;;10364035;28;20301;-75
2023/10/31 11:37:27;;;;;;;1.05;0.50;;;;;;;;;;10369026;28;20646;-71
2023/10/31 11:42:28;;;;;;;0.20;0.20;;;;;;;;;;10382712;28;20206;-76
2023/10/31 11:47:45;;;;;;;0.38;0.20;;;;;;;;;;10385863;28;20210;-75
2023/10/31 11:52:58;;;;;;;1.15;0.20;;;;;;;;;;10372542;28;20269;-74
2023/10/31 11:57:59;;;;;;;0.10;0.10;;;;;;;;;;10383653;28;20373;-74
2023/10/31 12:03:01;;;;;;;0.20;0.10;;;;;;;;;;10378431;28;20210;-76
2023/10/31 12:08:02;;;;;;;0.17;0.17;;;;;;;;;;10390328;28;20223;-76
2023/10/31 12:13:03;;;;;;;0.77;0.30;;;;;;;;;;10375321;28;20340;-74
2023/10/31 12:18:04;;;;;;;0.52;0.10;;;;;;;;;;10384820;28;20221;-74
2023/10/31 12:23:06;;;;;;;0.10;0.10;;;;;;;;;;10381251;28;20209;-75
2023/10/31 12:28:07;;;;;;;0.10;0.10;;;;;;;;;;10393244;28;20238;-76
2023/10/31 12:33:08;;;;;;;0.10;0.10;;;;;;;;;;10389537;28;20224;-75
2023/10/31 12:38:11;;;;;;;0.10;0.10;;;;;;;;;;10374702;28;20241;-76
2023/10/31 12:43:13;;;;;;;0.10;0.10;;;;;;;;;;10386965;28;20217;-73
2023/10/31 12:48:14;;;;;;;0.10;0.10;;;;;;;;;;10391644;28;20218;-74
2023/10/31 12:53:23;;;;;;;0.10;0.10;;;;;;;;;;10374276;28;20205;-74
2023/10/31 12:58:24;;;;;;;0.20;0.20;;;;;;;;;;10392600;28;20276;-76
2023/10/31 13:03:25;;;;;;;0.98;0.10;;;;;;;;;;10397146;28;20241;-73
2023/10/31 13:08:26;;;;;;;0.90;0.10;;;;;;;;;;10390680;28;20353;-73
2023/10/31 13:13:27;;;;;;;3.20;0.10;;;;;;;;;;10377024;28;20848;-73
2023/10/31 13:18:29;;;;;;;0.20;0.20;;;;;;;;;;10370044;28;20688;-75
2023/10/31 13:23:30;;;;;;;0.20;0.20;;;;;;;;;;10391219;28;20203;-74
2023/10/31 13:28:32;;;;;;;0.95;0.30;;;;;;;;;;10390804;28;20885;-76
2023/10/31 13:33:33;;;;;;;0.40;0.40;;;;;;;;;;10387865;28;20214;-76
2023/10/31 13:38:35;;;;;;;0.40;0.40;;;;;;;;;;10390569;28;20229;-77
2023/10/31 13:43:36;;;;;;;0.30;0.30;;;;;;;;;;10395072;28;20202;-75
2023/10/31 13:48:37;;;;;;;0.40;0.40;;;;;;;;;;10394016;28;20309;-76
2023/10/31 13:53:39;;;;;;;0.40;0.40;;;;;;;;;;10379405;28;20203;-75
2023/10/31 14:00:13;;;;;;;2.97;0.50;;;;;;;;;;10455229;27;20610;-75
2023/10/31 14:05:16;;;;;;;0.45;0.45;;;;;;;;;;10376105;28;20194;-78
2023/10/31 14:10:19;;;;;;;0.47;0.47;;;;;;;;;;10369588;28;20175;-75
2023/10/31 14:15:22;;;;;;;0.50;0.50;;;;;;;;;;10394797;28;20206;-75
2023/10/31 14:20:23;;;;;;;0.50;0.47;;;;;;;;;;10373560;28;20920;-77
2023/10/31 14:25:24;;;;;;;0.50;0.50;;;;;;;;;;10380549;28;20227;-75
2023/10/31 14:30:25;;;;;;;0.65;0.65;;;;;;;;;;10351589;28;20718;-74
2023/10/31 14:35:26;;;;;;;0.90;0.90;;;;;;;;;;10373166;28;20230;-74
2023/10/31 14:40:27;;;;;;;1.48;0.90;;;;;;;;;;10383950;28;20238;-76
2023/10/31 14:45:29;;;;;;;0.50;0.50;;;;;;;;;;10363861;28;20215;-76
2023/10/31 14:50:30;;;;;;;2.72;0.70;;;;;;;;;;10366968;28;20198;-78
2023/10/31 14:55:31;;;;;;;1.13;0.90;;;;;;;;;;10362670;28;20256;-75
2023/10/31 15:00:33;;;;;;;1.27;1.27;;;;;;;;;;10373541;28;20702;-74
2023/10/31 15:05:34;;;;;;;0.60;0.60;;;;;;;;;;10370792;28;20222;-79
2023/10/31 15:10:35;;;;;;;0.55;0.55;;;;;;;;;;10326802;28;20238;-77
2023/10/31 15:15:36;;;;;;;1.33;1.33;;;;;;;;;;10328647;28;20697;-80
2023/10/31 15:20:37;;;;;;;1.25;1.08;;;;;;;;;;10348540;28;20227;-78
2023/10/31 15:25:38;;;;;;;0.90;0.90;;;;;;;;;;10340319;28;20258;-77
2023/10/31 15:30:39;;;;;;;1.10;1.10;;;;;;;;;;10332486;28;20232;-76
2023/10/31 15:35:40;;;;;;;1.17;1.08;;;;;;;;;;10331447;28;20229;-75
2023/10/31 15:40:41;;;;;;;1.38;1.27;;;;;;;;;;10313808;28;20702;-75
2023/10/31 15:45:42;;;;;;;1.33;0.98;;;;;;;;;;10314892;28;20450;-79
2023/10/31 15:50:44;;;;;;;1.10;1.10;;;;;;;;;;10321863;28;20260;-76
2023/10/31 15:55:45;;;;;;;1.40;1.35;;;;;;;;;;10338263;28;20238;-77
2023/10/31 16:00:46;;;;;;;0.85;0.85;;;;;;;;;;10332819;28;20215;-76
2023/10/31 16:05:47;;;;;;;0.77;0.77;;;;;;;;;;10319215;28;20211;-79
2023/10/31 16:10:51;;;;;;;1.00;1.00;;;;;;;;;;10330494;28;20210;-80
2023/10/31 16:15:52;;;;;;;1.20;1.13;;;;;;;;;;10333468;28;20253;-74
2023/10/31 16:20:53;;;;;;;1.05;1.05;;;;;;;;;;10334345;28;20207;-78
2023/10/31 16:25:54;;;;;;;1.20;1.20;;;;;;;;;;10345205;28;20207;-76
2023/10/31 16:30:55;;;;;;;1.23;1.20;;;;;;;;;;10329067;28;20215;-77
2023/10/31 16:35:56;;;;;;;2.33;1.50;;;;;;;;;;10341583;28;20215;-75
2023/10/31 16:41:00;;;;;;;2.67;2.55;;;;;;;;;;10327495;28;20646;-77
2023/10/31 16:46:01;;;;;;;1.75;1.75;;;;;;;;;;10300830;28;20245;-74
2023/10/31 16:51:02;;;;;;;2.53;2.42;;;;;;;;;;10339637;28;22596;-78
2023/10/31 16:56:03;;;;;;;1.77;1.77;;;;;;;;;;10334249;28;20214;-75
2023/10/31 17:01:05;;;;;;;2.45;2.15;;;;;;;;;;10332177;28;20213;-77
2023/10/31 17:06:06;;;;;;;2.53;2.42;;;;;;;;;;10339627;28;20847;-76
2023/10/31 17:11:07;;;;;;;2.35;2.22;;;;;;;;;;10315495;28;20215;-77
2023/10/31 17:16:08;;;;;;;2.92;2.78;;;;;;;;;;10344864;28;20223;-77
2023/10/31 17:21:09;;;;;;;3.72;3.53;;;;;;;;;;10338053;28;20616;-78
2023/10/31 17:26:10;;;;;;;3.15;2.88;;;;;;;;;;10325123;28;20310;-79
2023/10/31 17:31:11;;;;;;;2.65;2.40;;;;;;;;;;10343036;28;20215;-78
2023/10/31 17:36:13;;;;;;;2.80;2.63;;;;;;;;;;10341753;28;20221;-76
2023/10/31 17:41:14;;;;;;;3.20;3.10;;;;;;;;;;10332591;28;20203;-77
2023/10/31 17:46:15;;;;;;;3.25;2.97;;;;;;;;;;10320966;28;20229;-77
2023/10/31 17:51:16;;;;;;;3.38;3.28;;;;;;;;;;10330949;28;20245;-76
2023/10/31 17:56:17;;;;;;;4.10;3.83;;;;;;;;;;10323535;28;20226;-77
2023/10/31 18:01:18;;;;;;;4.53;3.88;;;;;;;;;;10342043;28;20689;-77
2023/10/31 18:06:19;;;;;;;4.68;3.72;;;;;;;;;;10323466;28;20214;-77
2023/10/31 18:11:20;;;;;;;4.78;4.45;;;;;;;;;;10315940;28;20249;-76
2023/10/31 18:16:21;;;;;;;4.70;4.43;;;;;;;;;;10324632;28;20999;-78
2023/10/31 18:21:24;;;;;;;5.35;4.75;;;;;;;;;;10346991;28;20207;-78
2023/10/31 18:26:25;;;;;;;5.35;4.95;;;;;;;;;;10336432;28;20221;-77
2023/10/31 18:31:26;;;;;;;3.08;2.88;;;;;;;;;;10330924;28;20640;-76
2023/10/31 18:36:27;;;;;;;2.40;2.25;;;;;;;;;;10317824;28;20219;-76
2023/10/31 18:41:28;;;;;;;0.85;0.85;;;;;;;;;;10345866;28;20305;-78
2023/10/31 18:46:30;;;;;;;2.42;0.95;;;;;;;;;;10329863;28;20251;-80
2023/10/31 18:51:31;;;;;;;1.10;1.10;;;;;;;;;;10337819;28;20730;-80
2023/10/31 18:56:32;;;;;;;0.73;0.50;;;;;;;;;;10342072;28;20308;-80
2023/10/31 19:01:33;;;;;;;0.52;0.52;;;;;;;;;;10356623;28;20207;-79
2023/10/31 19:06:34;;;;;;;0.50;0.50;;;;;;;;;;10355269;28;20260;-77
2023/10/31 19:11:35;;;;;;;0.40;0.40;;;;;;;;;;10352772;28;20237;-79
2023/10/31 19:16:37;;;;;;;0.50;0.50;;;;;;;;;;10353962;28;20215;-78
2023/10/31 19:21:38;;;;;;;0.98;0.68;;;;;;;;;;10323915;28;20260;-78
2023/10/31 19:26:39;;;;;;;0.93;0.93;;;;;;;;;;10335579;28;20223;-80
2023/10/31 19:31:40;;;;;;;0.65;0.38;;;;;;;;;;10349925;28;20289;-79
2023/10/31 19:36:41;;;;;;;0.50;0.50;;;;;;;;;;10356055;28;20242;-80
2023/10/31 19:41:43;;;;;;;0.60;0.60;;;;;;;;;;10347773;28;20700;-77
2023/10/31 19:46:47;;;;;;;0.50;0.50;;;;;;;;;;10341269;28;20257;-78
2023/10/31 19:51:48;;;;;;;1.10;0.50;;;;;;;;;;10340133;28;20678;-75
2023/10/31 19:56:49;;;;;;;0.50;0.50;;;;;;;;;;10334327;28;21361;-77
2023/10/31 20:01:50;;;;;;;0.63;0.50;;;;;;;;;;10352407;28;20839;-77
2023/10/31 20:06:51;;;;;;;0.98;0.95;;;;;;;;;;10334404;28;20744;-76
2023/10/31 20:11:52;;;;;;;14.68;10.52;;;;;;;;;;10338116;28;20565;-77
2023/10/31 20:16:53;;;;;;;2.33;1.38;;;;;;;;;;10329938;28;20287;-76
2023/10/31 20:21:54;;;;;;;3.35;0.85;;;;;;;;;;10343493;28;20628;-75
2023/10/31 20:26:55;;;;;;;0.70;0.70;;;;;;;;;;10340974;28;20226;-78
2023/10/31 20:31:56;;;;;;;1.05;0.70;;;;;;;;;;10357054;28;20723;-79
2023/10/31 20:36:58;;;;;;;1.23;1.10;;;;;;;;;;10354932;28;20222;-80
2023/10/31 20:41:59;;;;;;;0.88;0.50;;;;;;;;;;10358077;28;20590;-77
2023/10/31 20:47:00;;;;;;;0.43;0.43;;;;;;;;;;10359751;28;20301;-78
2023/10/31 20:52:01;;;;;;;0.50;0.50;;;;;;;;;;10339971;28;20206;-77
2023/10/31 20:57:03;;;;;;;0.50;0.50;;;;;;;;;;10344245;28;20254;-77
2023/10/31 21:02:04;;;;;;;0.60;0.60;;;;;;;;;;10355676;28;20571;-77
2023/10/31 21:07:05;;;;;;;0.60;0.60;;;;;;;;;;10328524;28;20215;-75
2023/10/31 21:12:06;;;;;;;0.30;0.30;;;;;;;;;;10323916;28;20215;-76
2023/10/31 21:17:08;;;;;;;0.60;0.60;;;;;;;;;;10332766;28;20215;-77
2023/10/31 21:22:09;;;;;;;0.38;0.38;;;;;;;;;;10323514;28;20303;-76
2023/10/31 21:27:10;;;;;;;0.30;0.30;;;;;;;;;;10336017;28;20746;-76
2023/10/31 21:32:11;;;;;;;3.10;0.47;;;;;;;;;;10330474;28;20202;-77
2023/10/31 21:37:12;;;;;;;0.40;0.40;;;;;;;;;;10342038;28;20214;-77
2023/10/31 21:42:14;;;;;;;0.40;0.40;;;;;;;;;;10325942;28;20767;-77
2023/10/31 21:47:15;;;;;;;0.40;0.40;;;;;;;;;;10354572;28;20211;-79
2023/10/31 21:52:16;;;;;;;0.35;0.35;;;;;;;;;;10340741;28;20215;-80
2023/10/31 21:57:17;;;;;;;0.35;0.35;;;;;;;;;;10353541;28;20219;-77
2023/10/31 22:02:18;;;;;;;0.30;0.30;;;;;;;;;;10351357;28;21160;-76
2023/10/31 22:07:19;;;;;;;0.80;0.30;;;;;;;;;;10337917;28;20443;-77
2023/10/31 22:12:21;;;;;;;0.95;0.40;;;;;;;;;;10351256;28;20786;-79
2023/10/31 22:17:22;;;;;;;0.35;0.35;;;;;;;;;;10333011;28;20551;-77
2023/10/31 22:22:23;;;;;;;0.40;0.40;;;;;;;;;;10361573;28;20199;-78
2023/10/31 22:27:24;;;;;;;0.40;0.40;;;;;;;;;;10342399;28;20337;-77
2023/10/31 22:32:25;;;;;;;0.30;0.30;;;;;;;;;;10344572;28;20268;-77
2023/10/31 22:37:26;;;;;;;5.47;0.30;;;;;;;;;;10347503;28;20229;-77
2023/10/31 22:42:27;;;;;;;0.20;0.20;;;;;;;;;;10338299;28;20250;-75
2023/10/31 22:47:28;;;;;;;1.45;0.30;;;;;;;;;;10356584;28;20243;-79
2023/10/31 22:52:29;;;;;;;0.30;0.30;;;;;;;;;;10335469;28;20215;-77
2023/10/31 22:57:30;;;;;;;0.28;0.28;;;;;;;;;;10344192;28;20705;-77
2023/10/31 23:02:32;;;;;;;0.10;0.10;;;;;;;;;;10347315;28;20206;-74
2023/10/31 23:07:33;;;;;;;0.40;0.40;;;;;;;;;;10338258;28;20219;-77
2023/10/31 23:12:35;;;;;;;0.20;0.20;;;;;;;;;;10341135;28;20210;-78
2023/10/31 23:17:36;;;;;;;0.85;0.40;;;;;;;;;;10356566;28;20253;-78
2023/10/31 23:22:38;;;;;;;1.17;0.20;;;;;;;;;;10327467;28;20780;-76
2023/10/31 23:27:39;;;;;;;0.20;0.20;;;;;;;;;;10355881;28;20275;-79
2023/10/31 23:32:41;;;;;;;1.65;0.30;;;;;;;;;;10355827;28;20215;-77
2023/10/31 23:37:42;;;;;;;0.28;0.28;;;;;;;;;;10351655;28;20651;-75
2023/10/31 23:42:43;;;;;;;2.72;0.30;;;;;;;;;;10356928;28;20268;-77
2023/10/31 23:47:44;;;;;;;0.40;0.40;;;;;;;;;;10355983;28;20697;-77
2023/10/31 23:52:45;;;;;;;0.40;0.40;;;;;;;;;;10350411;28;20272;-76
2023/10/31 23:57:46;;;;;;;0.30;0.30;;;;;;;;;;10319756;28;20218;-78
